sensor_id;sensor_type;location;lat;lon;timestamp;P1;durP1;ratioP1;P2;durP2;ratioP2
22628;SDS011;11481;53.694;9.910;2023-04-22T00:01:00;4.57;;;2.47;;
22628;SDS011;11481;53.694;9.910;2023-04-22T00:03:27;5.95;;;2.45;;
22628;SDS011;11481;53.694;9.910;2023-04-22T00:05:54;4.85;;;2.65;;
22628;SDS011;11481;53.694;9.910;2023-04-22T00:08:21;5.25;;;2.47;;
22628;SDS011;11481;53.694;9.910;2023-04-22T00:10:48;5.35;;;2.50;;
22628;SDS011;11481;53.694;9.910;2023-04-22T00:13:14;8.95;;;2.65;;
22628;SDS011;11481;53.694;9.910;2023-04-22T00:15:41;4.57;;;2.38;;
22628;SDS011;11481;53.694;9.910;2023-04-22T00:18:08;4.72;;;2.55;;
22628;SDS011;11481;53.694;9.910;2023-04-22T00:20:39;4.10;;;2.55;;
22628;SDS011;11481;53.694;9.910;2023-04-22T00:23:10;4.97;;;2.42;;
22628;SDS011;11481;53.694;9.910;2023-04-22T00:25:38;4.75;;;2.25;;
22628;SDS011;11481;53.694;9.910;2023-04-22T00:28:05;5.22;;;2.60;;
22628;SDS011;11481;53.694;9.910;2023-04-22T00:30:32;7.15;;;2.78;;
22628;SDS011;11481;53.694;9.910;2023-04-22T00:32:59;5.20;;;2.60;;
22628;SDS011;11481;53.694;9.910;2023-04-22T00:35:26;9.70;;;2.95;;
22628;SDS011;11481;53.694;9.910;2023-04-22T00:37:53;9.18;;;2.83;;
22628;SDS011;11481;53.694;9.910;2023-04-22T00:40:19;6.57;;;2.65;;
22628;SDS011;11481;53.694;9.910;2023-04-22T00:42:48;5.78;;;2.55;;
22628;SDS011;11481;53.694;9.910;2023-04-22T00:45:16;6.05;;;2.80;;
22628;SDS011;11481;53.694;9.910;2023-04-22T00:47:44;5.13;;;2.60;;
22628;SDS011;11481;53.694;9.910;2023-04-22T00:50:11;4.15;;;2.15;;
22628;SDS011;11481;53.694;9.910;2023-04-22T00:52:39;7.10;;;2.30;;
22628;SDS011;11481;53.694;9.910;2023-04-22T00:55:06;4.05;;;2.40;;
22628;SDS011;11481;53.694;9.910;2023-04-22T00:57:33;5.50;;;2.40;;
22628;SDS011;11481;53.694;9.910;2023-04-22T01:00:01;7.00;;;3.17;;
22628;SDS011;11481;53.694;9.910;2023-04-22T01:02:32;5.50;;;2.33;;
22628;SDS011;11481;53.694;9.910;2023-04-22T01:04:59;8.90;;;2.67;;
22628;SDS011;11481;53.694;9.910;2023-04-22T01:07:26;5.15;;;2.13;;
22628;SDS011;11481;53.694;9.910;2023-04-22T01:09:53;6.55;;;2.85;;
22628;SDS011;11481;53.694;9.910;2023-04-22T01:12:20;7.45;;;2.67;;
22628;SDS011;11481;53.694;9.910;2023-04-22T01:14:47;6.75;;;2.60;;
22628;SDS011;11481;53.694;9.910;2023-04-22T01:17:14;5.15;;;2.55;;
22628;SDS011;11481;53.694;9.910;2023-04-22T01:19:41;6.80;;;2.80;;
22628;SDS011;11481;53.694;9.910;2023-04-22T01:22:09;5.00;;;2.50;;
22628;SDS011;11481;53.694;9.910;2023-04-22T01:24:39;7.47;;;3.30;;
22628;SDS011;11481;53.694;9.910;2023-04-22T01:27:06;4.95;;;2.72;;
22628;SDS011;11481;53.694;9.910;2023-04-22T01:29:35;5.78;;;2.50;;
22628;SDS011;11481;53.694;9.910;2023-04-22T01:32:03;4.53;;;2.30;;
22628;SDS011;11481;53.694;9.910;2023-04-22T01:34:31;5.43;;;2.47;;
22628;SDS011;11481;53.694;9.910;2023-04-22T01:36:58;8.32;;;2.90;;
22628;SDS011;11481;53.694;9.910;2023-04-22T01:39:24;6.93;;;3.25;;
22628;SDS011;11481;53.694;9.910;2023-04-22T01:41:51;4.90;;;2.63;;
22628;SDS011;11481;53.694;9.910;2023-04-22T01:44:19;5.38;;;2.60;;
22628;SDS011;11481;53.694;9.910;2023-04-22T01:46:46;8.52;;;3.03;;
22628;SDS011;11481;53.694;9.910;2023-04-22T01:49:12;4.65;;;2.55;;
22628;SDS011;11481;53.694;9.910;2023-04-22T01:51:39;6.53;;;3.08;;
22628;SDS011;11481;53.694;9.910;2023-04-22T01:54:06;5.70;;;3.05;;
22628;SDS011;11481;53.694;9.910;2023-04-22T01:56:34;8.05;;;2.92;;
22628;SDS011;11481;53.694;9.910;2023-04-22T01:59:01;7.82;;;3.10;;
22628;SDS011;11481;53.694;9.910;2023-04-22T02:01:27;6.45;;;3.15;;
22628;SDS011;11481;53.694;9.910;2023-04-22T02:03:54;7.68;;;3.00;;
22628;SDS011;11481;53.694;9.910;2023-04-22T02:06:21;6.70;;;2.83;;
22628;SDS011;11481;53.694;9.910;2023-04-22T02:08:47;4.72;;;2.70;;
22628;SDS011;11481;53.694;9.910;2023-04-22T02:11:14;6.20;;;2.75;;
22628;SDS011;11481;53.694;9.910;2023-04-22T02:13:40;6.60;;;3.10;;
22628;SDS011;11481;53.694;9.910;2023-04-22T02:16:07;6.30;;;3.28;;
22628;SDS011;11481;53.694;9.910;2023-04-22T02:18:34;6.47;;;3.20;;
22628;SDS011;11481;53.694;9.910;2023-04-22T02:21:01;6.20;;;3.45;;
22628;SDS011;11481;53.694;9.910;2023-04-22T02:23:28;5.95;;;3.22;;
22628;SDS011;11481;53.694;9.910;2023-04-22T02:25:55;7.20;;;3.33;;
22628;SDS011;11481;53.694;9.910;2023-04-22T02:28:22;8.55;;;3.13;;
22628;SDS011;11481;53.694;9.910;2023-04-22T02:30:48;5.55;;;2.90;;
22628;SDS011;11481;53.694;9.910;2023-04-22T02:33:15;6.38;;;3.33;;
22628;SDS011;11481;53.694;9.910;2023-04-22T02:35:42;6.55;;;3.47;;
22628;SDS011;11481;53.694;9.910;2023-04-22T02:38:09;6.22;;;3.33;;
22628;SDS011;11481;53.694;9.910;2023-04-22T02:40:36;6.53;;;3.25;;
22628;SDS011;11481;53.694;9.910;2023-04-22T02:43:02;6.38;;;3.28;;
22628;SDS011;11481;53.694;9.910;2023-04-22T02:45:29;8.18;;;3.70;;
22628;SDS011;11481;53.694;9.910;2023-04-22T02:47:56;6.97;;;3.22;;
22628;SDS011;11481;53.694;9.910;2023-04-22T02:50:23;7.57;;;3.50;;
22628;SDS011;11481;53.694;9.910;2023-04-22T02:52:50;5.38;;;3.17;;
22628;SDS011;11481;53.694;9.910;2023-04-22T02:55:17;7.28;;;3.03;;
22628;SDS011;11481;53.694;9.910;2023-04-22T02:57:43;6.55;;;3.42;;
22628;SDS011;11481;53.694;9.910;2023-04-22T03:00:10;6.35;;;3.25;;
22628;SDS011;11481;53.694;9.910;2023-04-22T03:02:38;7.30;;;3.38;;
22628;SDS011;11481;53.694;9.910;2023-04-22T03:05:05;7.00;;;3.80;;
22628;SDS011;11481;53.694;9.910;2023-04-22T03:07:32;9.90;;;4.20;;
22628;SDS011;11481;53.694;9.910;2023-04-22T03:09:59;7.90;;;4.25;;
22628;SDS011;11481;53.694;9.910;2023-04-22T03:12:25;8.82;;;3.85;;
22628;SDS011;11481;53.694;9.910;2023-04-22T03:14:52;6.88;;;3.67;;
22628;SDS011;11481;53.694;9.910;2023-04-22T03:17:19;7.18;;;3.55;;
22628;SDS011;11481;53.694;9.910;2023-04-22T03:19:45;8.30;;;3.70;;
22628;SDS011;11481;53.694;9.910;2023-04-22T03:22:12;7.65;;;4.13;;
22628;SDS011;11481;53.694;9.910;2023-04-22T03:24:39;7.22;;;4.00;;
22628;SDS011;11481;53.694;9.910;2023-04-22T03:27:06;7.47;;;3.80;;
22628;SDS011;11481;53.694;9.910;2023-04-22T03:29:33;8.18;;;3.83;;
22628;SDS011;11481;53.694;9.910;2023-04-22T03:31:59;7.70;;;4.03;;
22628;SDS011;11481;53.694;9.910;2023-04-22T03:34:26;8.88;;;4.25;;
22628;SDS011;11481;53.694;9.910;2023-04-22T03:36:53;8.77;;;3.70;;
22628;SDS011;11481;53.694;9.910;2023-04-22T03:39:19;6.72;;;4.05;;
22628;SDS011;11481;53.694;9.910;2023-04-22T03:41:46;7.35;;;3.78;;
22628;SDS011;11481;53.694;9.910;2023-04-22T03:44:13;8.25;;;4.13;;
22628;SDS011;11481;53.694;9.910;2023-04-22T03:46:39;8.68;;;3.55;;
22628;SDS011;11481;53.694;9.910;2023-04-22T03:49:06;8.02;;;3.90;;
22628;SDS011;11481;53.694;9.910;2023-04-22T03:51:33;9.93;;;4.75;;
22628;SDS011;11481;53.694;9.910;2023-04-22T03:54:00;7.25;;;4.00;;
22628;SDS011;11481;53.694;9.910;2023-04-22T03:56:26;7.18;;;3.60;;
22628;SDS011;11481;53.694;9.910;2023-04-22T03:58:53;8.95;;;3.85;;
22628;SDS011;11481;53.694;9.910;2023-04-22T04:01:19;8.88;;;4.15;;
22628;SDS011;11481;53.694;9.910;2023-04-22T04:03:46;8.05;;;4.32;;
22628;SDS011;11481;53.694;9.910;2023-04-22T04:06:13;8.52;;;4.55;;
22628;SDS011;11481;53.694;9.910;2023-04-22T04:08:40;9.15;;;4.10;;
22628;SDS011;11481;53.694;9.910;2023-04-22T04:11:08;9.23;;;4.65;;
22628;SDS011;11481;53.694;9.910;2023-04-22T04:13:35;7.43;;;3.83;;
22628;SDS011;11481;53.694;9.910;2023-04-22T04:16:02;8.75;;;3.75;;
22628;SDS011;11481;53.694;9.910;2023-04-22T04:18:29;7.75;;;4.20;;
22628;SDS011;11481;53.694;9.910;2023-04-22T04:20:55;8.68;;;4.40;;
22628;SDS011;11481;53.694;9.910;2023-04-22T04:23:22;7.20;;;4.10;;
22628;SDS011;11481;53.694;9.910;2023-04-22T04:25:49;8.60;;;4.35;;
22628;SDS011;11481;53.694;9.910;2023-04-22T04:28:17;10.15;;;5.15;;
22628;SDS011;11481;53.694;9.910;2023-04-22T04:30:44;9.10;;;4.03;;
22628;SDS011;11481;53.694;9.910;2023-04-22T04:33:11;9.88;;;4.45;;
22628;SDS011;11481;53.694;9.910;2023-04-22T04:35:38;9.32;;;4.03;;
22628;SDS011;11481;53.694;9.910;2023-04-22T04:38:06;8.35;;;3.85;;
22628;SDS011;11481;53.694;9.910;2023-04-22T04:40:33;8.75;;;4.63;;
22628;SDS011;11481;53.694;9.910;2023-04-22T04:43:01;9.52;;;4.60;;
22628;SDS011;11481;53.694;9.910;2023-04-22T04:45:29;8.70;;;4.10;;
22628;SDS011;11481;53.694;9.910;2023-04-22T04:47:55;8.43;;;4.63;;
22628;SDS011;11481;53.694;9.910;2023-04-22T04:50:24;9.02;;;4.38;;
22628;SDS011;11481;53.694;9.910;2023-04-22T04:52:53;9.65;;;4.55;;
22628;SDS011;11481;53.694;9.910;2023-04-22T04:55:19;8.55;;;4.30;;
22628;SDS011;11481;53.694;9.910;2023-04-22T04:57:46;9.73;;;4.72;;
22628;SDS011;11481;53.694;9.910;2023-04-22T05:00:13;8.40;;;4.50;;
22628;SDS011;11481;53.694;9.910;2023-04-22T05:02:40;8.55;;;4.72;;
22628;SDS011;11481;53.694;9.910;2023-04-22T05:05:07;7.20;;;4.20;;
22628;SDS011;11481;53.694;9.910;2023-04-22T05:07:34;8.48;;;4.80;;
22628;SDS011;11481;53.694;9.910;2023-04-22T05:10:01;7.70;;;4.63;;
22628;SDS011;11481;53.694;9.910;2023-04-22T05:12:28;15.57;;;4.40;;
22628;SDS011;11481;53.694;9.910;2023-04-22T05:14:55;10.68;;;4.88;;
22628;SDS011;11481;53.694;9.910;2023-04-22T05:17:21;9.18;;;4.65;;
22628;SDS011;11481;53.694;9.910;2023-04-22T05:19:48;8.45;;;4.82;;
22628;SDS011;11481;53.694;9.910;2023-04-22T05:22:15;11.50;;;4.75;;
22628;SDS011;11481;53.694;9.910;2023-04-22T05:24:43;9.65;;;4.68;;
22628;SDS011;11481;53.694;9.910;2023-04-22T05:27:10;9.82;;;4.70;;
22628;SDS011;11481;53.694;9.910;2023-04-22T05:29:37;7.97;;;4.53;;
22628;SDS011;11481;53.694;9.910;2023-04-22T05:32:05;9.88;;;4.95;;
22628;SDS011;11481;53.694;9.910;2023-04-22T05:34:33;10.23;;;5.57;;
22628;SDS011;11481;53.694;9.910;2023-04-22T05:37:03;9.45;;;5.32;;
22628;SDS011;11481;53.694;9.910;2023-04-22T05:39:30;10.88;;;4.57;;
22628;SDS011;11481;53.694;9.910;2023-04-22T05:41:57;9.38;;;4.47;;
22628;SDS011;11481;53.694;9.910;2023-04-22T05:44:24;10.30;;;4.55;;
22628;SDS011;11481;53.694;9.910;2023-04-22T05:46:50;12.88;;;5.05;;
22628;SDS011;11481;53.694;9.910;2023-04-22T05:49:17;9.57;;;5.45;;
22628;SDS011;11481;53.694;9.910;2023-04-22T05:51:44;19.60;;;5.63;;
22628;SDS011;11481;53.694;9.910;2023-04-22T05:54:11;13.05;;;4.78;;
22628;SDS011;11481;53.694;9.910;2023-04-22T05:56:38;10.02;;;5.30;;
22628;SDS011;11481;53.694;9.910;2023-04-22T05:59:04;10.95;;;5.38;;
22628;SDS011;11481;53.694;9.910;2023-04-22T06:01:31;12.57;;;5.38;;
22628;SDS011;11481;53.694;9.910;2023-04-22T06:03:57;8.30;;;4.72;;
22628;SDS011;11481;53.694;9.910;2023-04-22T06:06:25;15.82;;;5.25;;
22628;SDS011;11481;53.694;9.910;2023-04-22T06:08:52;11.02;;;5.10;;
22628;SDS011;11481;53.694;9.910;2023-04-22T06:11:19;9.25;;;4.93;;
22628;SDS011;11481;53.694;9.910;2023-04-22T06:13:46;8.90;;;4.68;;
22628;SDS011;11481;53.694;9.910;2023-04-22T06:16:12;11.48;;;5.28;;
22628;SDS011;11481;53.694;9.910;2023-04-22T06:18:39;14.15;;;5.35;;
22628;SDS011;11481;53.694;9.910;2023-04-22T06:21:06;10.90;;;5.15;;
22628;SDS011;11481;53.694;9.910;2023-04-22T06:23:32;9.63;;;4.68;;
22628;SDS011;11481;53.694;9.910;2023-04-22T06:25:59;9.40;;;4.80;;
22628;SDS011;11481;53.694;9.910;2023-04-22T06:28:28;12.63;;;5.07;;
22628;SDS011;11481;53.694;9.910;2023-04-22T06:30:55;11.80;;;5.60;;
22628;SDS011;11481;53.694;9.910;2023-04-22T06:33:22;9.30;;;5.28;;
22628;SDS011;11481;53.694;9.910;2023-04-22T06:35:49;9.95;;;5.22;;
22628;SDS011;11481;53.694;9.910;2023-04-22T06:38:15;9.38;;;4.60;;
22628;SDS011;11481;53.694;9.910;2023-04-22T06:40:42;11.25;;;5.65;;
22628;SDS011;11481;53.694;9.910;2023-04-22T06:43:09;13.40;;;5.50;;
22628;SDS011;11481;53.694;9.910;2023-04-22T06:45:36;11.68;;;5.38;;
22628;SDS011;11481;53.694;9.910;2023-04-22T06:48:02;11.13;;;6.25;;
22628;SDS011;11481;53.694;9.910;2023-04-22T06:50:31;9.38;;;5.68;;
22628;SDS011;11481;53.694;9.910;2023-04-22T06:52:59;10.60;;;5.40;;
22628;SDS011;11481;53.694;9.910;2023-04-22T06:55:26;15.25;;;6.10;;
22628;SDS011;11481;53.694;9.910;2023-04-22T06:57:53;11.05;;;5.18;;
22628;SDS011;11481;53.694;9.910;2023-04-22T07:00:19;8.82;;;5.30;;
22628;SDS011;11481;53.694;9.910;2023-04-22T07:02:46;12.25;;;5.63;;
22628;SDS011;11481;53.694;9.910;2023-04-22T07:05:14;10.07;;;5.07;;
22628;SDS011;11481;53.694;9.910;2023-04-22T07:07:41;11.88;;;5.18;;
22628;SDS011;11481;53.694;9.910;2023-04-22T07:10:08;11.57;;;5.40;;
22628;SDS011;11481;53.694;9.910;2023-04-22T07:12:36;8.88;;;5.15;;
22628;SDS011;11481;53.694;9.910;2023-04-22T07:15:03;11.73;;;5.95;;
22628;SDS011;11481;53.694;9.910;2023-04-22T07:17:31;9.95;;;5.13;;
22628;SDS011;11481;53.694;9.910;2023-04-22T07:19:58;9.90;;;5.57;;
22628;SDS011;11481;53.694;9.910;2023-04-22T07:22:25;9.63;;;4.90;;
22628;SDS011;11481;53.694;9.910;2023-04-22T07:24:51;9.40;;;5.32;;
22628;SDS011;11481;53.694;9.910;2023-04-22T07:27:18;8.55;;;5.10;;
22628;SDS011;11481;53.694;9.910;2023-04-22T07:29:45;8.25;;;4.82;;
22628;SDS011;11481;53.694;9.910;2023-04-22T07:32:12;8.13;;;4.38;;
22628;SDS011;11481;53.694;9.910;2023-04-22T07:34:39;8.75;;;4.93;;
22628;SDS011;11481;53.694;9.910;2023-04-22T07:37:06;13.15;;;5.40;;
22628;SDS011;11481;53.694;9.910;2023-04-22T07:39:34;9.65;;;4.75;;
22628;SDS011;11481;53.694;9.910;2023-04-22T07:42:04;9.45;;;4.90;;
22628;SDS011;11481;53.694;9.910;2023-04-22T07:44:32;11.32;;;5.45;;
22628;SDS011;11481;53.694;9.910;2023-04-22T07:46:58;10.75;;;5.05;;
22628;SDS011;11481;53.694;9.910;2023-04-22T07:49:25;9.75;;;4.95;;
22628;SDS011;11481;53.694;9.910;2023-04-22T07:51:52;12.68;;;5.53;;
22628;SDS011;11481;53.694;9.910;2023-04-22T07:54:19;10.70;;;5.53;;
22628;SDS011;11481;53.694;9.910;2023-04-22T07:56:45;9.70;;;5.03;;
22628;SDS011;11481;53.694;9.910;2023-04-22T07:59:12;10.07;;;5.00;;
22628;SDS011;11481;53.694;9.910;2023-04-22T08:01:38;8.20;;;5.40;;
22628;SDS011;11481;53.694;9.910;2023-04-22T08:04:05;8.75;;;4.97;;
22628;SDS011;11481;53.694;9.910;2023-04-22T08:06:33;11.13;;;4.80;;
22628;SDS011;11481;53.694;9.910;2023-04-22T08:09:00;9.32;;;4.80;;
22628;SDS011;11481;53.694;9.910;2023-04-22T08:11:26;7.75;;;4.72;;
22628;SDS011;11481;53.694;9.910;2023-04-22T08:13:53;10.65;;;4.97;;
22628;SDS011;11481;53.694;9.910;2023-04-22T08:16:20;9.15;;;4.57;;
22628;SDS011;11481;53.694;9.910;2023-04-22T08:18:47;12.00;;;5.22;;
22628;SDS011;11481;53.694;9.910;2023-04-22T08:21:14;11.05;;;6.10;;
22628;SDS011;11481;53.694;9.910;2023-04-22T08:23:41;10.95;;;5.07;;
22628;SDS011;11481;53.694;9.910;2023-04-22T08:26:07;9.93;;;4.88;;
22628;SDS011;11481;53.694;9.910;2023-04-22T08:28:36;11.40;;;4.80;;
22628;SDS011;11481;53.694;9.910;2023-04-22T08:31:03;9.15;;;4.57;;
22628;SDS011;11481;53.694;9.910;2023-04-22T08:33:31;9.57;;;4.95;;
22628;SDS011;11481;53.694;9.910;2023-04-22T08:35:58;9.25;;;4.55;;
22628;SDS011;11481;53.694;9.910;2023-04-22T08:38:25;9.23;;;5.05;;
22628;SDS011;11481;53.694;9.910;2023-04-22T08:40:53;15.75;;;4.88;;
22628;SDS011;11481;53.694;9.910;2023-04-22T08:43:22;8.82;;;4.60;;
22628;SDS011;11481;53.694;9.910;2023-04-22T08:45:51;10.88;;;4.88;;
22628;SDS011;11481;53.694;9.910;2023-04-22T08:48:18;9.68;;;4.80;;
22628;SDS011;11481;53.694;9.910;2023-04-22T08:50:46;7.50;;;4.75;;
22628;SDS011;11481;53.694;9.910;2023-04-22T08:53:13;10.82;;;4.88;;
22628;SDS011;11481;53.694;9.910;2023-04-22T08:55:42;9.95;;;4.82;;
22628;SDS011;11481;53.694;9.910;2023-04-22T08:58:11;12.05;;;5.47;;
22628;SDS011;11481;53.694;9.910;2023-04-22T09:00:38;7.13;;;4.63;;
22628;SDS011;11481;53.694;9.910;2023-04-22T09:03:08;9.65;;;4.45;;
22628;SDS011;11481;53.694;9.910;2023-04-22T09:05:36;10.25;;;4.93;;
22628;SDS011;11481;53.694;9.910;2023-04-22T09:08:06;9.73;;;4.80;;
22628;SDS011;11481;53.694;9.910;2023-04-22T09:10:37;9.50;;;4.93;;
22628;SDS011;11481;53.694;9.910;2023-04-22T09:13:05;8.35;;;4.78;;
22628;SDS011;11481;53.694;9.910;2023-04-22T09:15:32;9.20;;;4.82;;
22628;SDS011;11481;53.694;9.910;2023-04-22T09:17:59;8.68;;;4.68;;
22628;SDS011;11481;53.694;9.910;2023-04-22T09:20:28;9.88;;;4.85;;
22628;SDS011;11481;53.694;9.910;2023-04-22T09:22:56;10.75;;;4.57;;
22628;SDS011;11481;53.694;9.910;2023-04-22T09:25:31;9.60;;;4.40;;
22628;SDS011;11481;53.694;9.910;2023-04-22T09:28:00;8.65;;;4.57;;
22628;SDS011;11481;53.694;9.910;2023-04-22T09:30:29;10.20;;;4.90;;
22628;SDS011;11481;53.694;9.910;2023-04-22T09:33:00;7.65;;;4.25;;
22628;SDS011;11481;53.694;9.910;2023-04-22T09:35:30;6.82;;;4.13;;
22628;SDS011;11481;53.694;9.910;2023-04-22T09:38:05;10.45;;;4.05;;
22628;SDS011;11481;53.694;9.910;2023-04-22T09:40:34;9.15;;;4.57;;
22628;SDS011;11481;53.694;9.910;2023-04-22T09:43:03;10.63;;;4.97;;
22628;SDS011;11481;53.694;9.910;2023-04-22T09:48:01;8.40;;;4.40;;
22628;SDS011;11481;53.694;9.910;2023-04-22T09:50:35;8.73;;;4.93;;
22628;SDS011;11481;53.694;9.910;2023-04-22T09:53:07;8.13;;;4.78;;
22628;SDS011;11481;53.694;9.910;2023-04-22T09:55:37;9.48;;;4.40;;
22628;SDS011;11481;53.694;9.910;2023-04-22T09:58:08;7.32;;;4.55;;
22628;SDS011;11481;53.694;9.910;2023-04-22T10:00:38;6.90;;;3.97;;
22628;SDS011;11481;53.694;9.910;2023-04-22T10:03:08;7.15;;;3.70;;
22628;SDS011;11481;53.694;9.910;2023-04-22T10:05:36;6.97;;;3.85;;
22628;SDS011;11481;53.694;9.910;2023-04-22T10:08:04;7.55;;;4.30;;
22628;SDS011;11481;53.694;9.910;2023-04-22T10:10:31;7.75;;;4.03;;
22628;SDS011;11481;53.694;9.910;2023-04-22T10:12:59;7.57;;;4.53;;
22628;SDS011;11481;53.694;9.910;2023-04-22T10:15:30;8.43;;;4.30;;
22628;SDS011;11481;53.694;9.910;2023-04-22T10:17:58;10.05;;;4.53;;
22628;SDS011;11481;53.694;9.910;2023-04-22T10:20:27;7.25;;;3.92;;
22628;SDS011;11481;53.694;9.910;2023-04-22T10:22:55;6.93;;;3.95;;
22628;SDS011;11481;53.694;9.910;2023-04-22T10:25:22;6.40;;;3.45;;
22628;SDS011;11481;53.694;9.910;2023-04-22T10:28:07;6.95;;;3.70;;
22628;SDS011;11481;53.694;9.910;2023-04-22T10:30:36;5.53;;;3.35;;
22628;SDS011;11481;53.694;9.910;2023-04-22T10:41:21;10.65;;;4.45;;
22628;SDS011;11481;53.694;9.910;2023-04-22T10:43:55;6.25;;;3.75;;
22628;SDS011;11481;53.694;9.910;2023-04-22T10:49:06;5.10;;;3.25;;
22628;SDS011;11481;53.694;9.910;2023-04-22T10:51:49;6.30;;;2.95;;
22628;SDS011;11481;53.694;9.910;2023-04-22T10:57:01;6.82;;;3.30;;
22628;SDS011;11481;53.694;9.910;2023-04-22T10:59:46;6.25;;;3.20;;
22628;SDS011;11481;53.694;9.910;2023-04-22T11:02:17;5.20;;;3.33;;
22628;SDS011;11481;53.694;9.910;2023-04-22T11:04:45;6.03;;;3.60;;
22628;SDS011;11481;53.694;9.910;2023-04-22T11:09:53;6.28;;;3.55;;
22628;SDS011;11481;53.694;9.910;2023-04-22T11:15:03;6.80;;;3.72;;
22628;SDS011;11481;53.694;9.910;2023-04-22T11:17:31;6.30;;;3.70;;
22628;SDS011;11481;53.694;9.910;2023-04-22T11:19:58;5.07;;;3.20;;
22628;SDS011;11481;53.694;9.910;2023-04-22T11:22:25;6.68;;;3.60;;
22628;SDS011;11481;53.694;9.910;2023-04-22T11:24:56;6.60;;;3.80;;
22628;SDS011;11481;53.694;9.910;2023-04-22T11:27:26;6.57;;;3.72;;
22628;SDS011;11481;53.694;9.910;2023-04-22T11:30:37;6.47;;;3.55;;
22628;SDS011;11481;53.694;9.910;2023-04-22T11:32:48;6.63;;;3.42;;
22628;SDS011;11481;53.694;9.910;2023-04-22T11:35:22;9.77;;;3.88;;
22628;SDS011;11481;53.694;9.910;2023-04-22T11:37:54;7.00;;;4.15;;
22628;SDS011;11481;53.694;9.910;2023-04-22T11:40:23;5.60;;;3.75;;
22628;SDS011;11481;53.694;9.910;2023-04-22T11:42:57;7.80;;;3.95;;
22628;SDS011;11481;53.694;9.910;2023-04-22T11:45:25;4.63;;;3.30;;
22628;SDS011;11481;53.694;9.910;2023-04-22T11:47:54;5.90;;;3.38;;
22628;SDS011;11481;53.694;9.910;2023-04-22T11:50:25;6.78;;;3.80;;
22628;SDS011;11481;53.694;9.910;2023-04-22T11:52:54;6.15;;;3.72;;
22628;SDS011;11481;53.694;9.910;2023-04-22T11:58:00;6.38;;;4.13;;
22628;SDS011;11481;53.694;9.910;2023-04-22T12:00:36;6.45;;;3.63;;
22628;SDS011;11481;53.694;9.910;2023-04-22T12:03:12;6.22;;;3.75;;
22628;SDS011;11481;53.694;9.910;2023-04-22T12:05:42;5.15;;;3.40;;
22628;SDS011;11481;53.694;9.910;2023-04-22T12:08:11;5.15;;;3.28;;
22628;SDS011;11481;53.694;9.910;2023-04-22T12:10:50;6.93;;;3.58;;
22628;SDS011;11481;53.694;9.910;2023-04-22T12:13:22;5.53;;;3.28;;
22628;SDS011;11481;53.694;9.910;2023-04-22T12:15:57;6.78;;;3.20;;
22628;SDS011;11481;53.694;9.910;2023-04-22T12:18:35;9.13;;;3.45;;
22628;SDS011;11481;53.694;9.910;2023-04-22T12:21:12;4.97;;;3.10;;
22628;SDS011;11481;53.694;9.910;2023-04-22T12:23:43;5.15;;;3.15;;
22628;SDS011;11481;53.694;9.910;2023-04-22T12:26:18;5.65;;;3.63;;
22628;SDS011;11481;53.694;9.910;2023-04-22T12:28:50;5.75;;;3.50;;
22628;SDS011;11481;53.694;9.910;2023-04-22T12:31:18;8.73;;;3.60;;
22628;SDS011;11481;53.694;9.910;2023-04-22T12:33:45;5.10;;;3.20;;
22628;SDS011;11481;53.694;9.910;2023-04-22T12:36:12;8.18;;;3.25;;
22628;SDS011;11481;53.694;9.910;2023-04-22T12:38:39;5.28;;;3.22;;
22628;SDS011;11481;53.694;9.910;2023-04-22T12:41:05;5.60;;;3.50;;
22628;SDS011;11481;53.694;9.910;2023-04-22T12:43:32;7.00;;;3.08;;
22628;SDS011;11481;53.694;9.910;2023-04-22T12:46:04;10.05;;;3.28;;
22628;SDS011;11481;53.694;9.910;2023-04-22T12:48:33;6.00;;;3.80;;
22628;SDS011;11481;53.694;9.910;2023-04-22T12:51:02;4.78;;;3.20;;
22628;SDS011;11481;53.694;9.910;2023-04-22T12:53:29;7.68;;;3.80;;
22628;SDS011;11481;53.694;9.910;2023-04-22T12:55:56;4.90;;;3.42;;
22628;SDS011;11481;53.694;9.910;2023-04-22T12:58:23;5.00;;;3.17;;
22628;SDS011;11481;53.694;9.910;2023-04-22T13:00:51;5.22;;;3.45;;
22628;SDS011;11481;53.694;9.910;2023-04-22T13:03:17;6.35;;;3.22;;
22628;SDS011;11481;53.694;9.910;2023-04-22T13:05:45;5.53;;;3.50;;
22628;SDS011;11481;53.694;9.910;2023-04-22T13:08:11;5.68;;;3.20;;
22628;SDS011;11481;53.694;9.910;2023-04-22T13:10:38;5.40;;;3.35;;
22628;SDS011;11481;53.694;9.910;2023-04-22T13:13:05;5.40;;;2.95;;
22628;SDS011;11481;53.694;9.910;2023-04-22T13:15:36;7.30;;;3.40;;
22628;SDS011;11481;53.694;9.910;2023-04-22T13:18:04;6.30;;;3.05;;
22628;SDS011;11481;53.694;9.910;2023-04-22T13:20:31;6.13;;;3.35;;
22628;SDS011;11481;53.694;9.910;2023-04-22T13:22:57;4.35;;;3.10;;
22628;SDS011;11481;53.694;9.910;2023-04-22T13:25:24;6.68;;;3.40;;
22628;SDS011;11481;53.694;9.910;2023-04-22T13:27:51;5.57;;;3.05;;
22628;SDS011;11481;53.694;9.910;2023-04-22T13:30:17;7.35;;;4.10;;
22628;SDS011;11481;53.694;9.910;2023-04-22T13:32:45;5.97;;;3.53;;
22628;SDS011;11481;53.694;9.910;2023-04-22T13:35:12;5.30;;;3.40;;
22628;SDS011;11481;53.694;9.910;2023-04-22T13:37:38;5.18;;;3.20;;
22628;SDS011;11481;53.694;9.910;2023-04-22T13:40:05;5.20;;;3.25;;
22628;SDS011;11481;53.694;9.910;2023-04-22T13:42:33;6.65;;;3.35;;
22628;SDS011;11481;53.694;9.910;2023-04-22T13:45:00;4.88;;;2.80;;
22628;SDS011;11481;53.694;9.910;2023-04-22T13:47:26;4.75;;;3.10;;
22628;SDS011;11481;53.694;9.910;2023-04-22T13:49:53;5.55;;;3.38;;
22628;SDS011;11481;53.694;9.910;2023-04-22T13:52:20;6.47;;;3.78;;
22628;SDS011;11481;53.694;9.910;2023-04-22T13:54:46;4.03;;;2.75;;
22628;SDS011;11481;53.694;9.910;2023-04-22T13:57:13;6.18;;;3.03;;
22628;SDS011;11481;53.694;9.910;2023-04-22T13:59:40;5.55;;;3.00;;
22628;SDS011;11481;53.694;9.910;2023-04-22T14:02:07;4.40;;;2.88;;
22628;SDS011;11481;53.694;9.910;2023-04-22T14:04:34;5.47;;;3.03;;
22628;SDS011;11481;53.694;9.910;2023-04-22T14:07:01;3.65;;;2.40;;
22628;SDS011;11481;53.694;9.910;2023-04-22T14:09:29;3.90;;;2.78;;
22628;SDS011;11481;53.694;9.910;2023-04-22T14:11:55;4.47;;;2.80;;
22628;SDS011;11481;53.694;9.910;2023-04-22T14:14:22;5.68;;;3.15;;
22628;SDS011;11481;53.694;9.910;2023-04-22T14:16:49;8.95;;;2.80;;
22628;SDS011;11481;53.694;9.910;2023-04-22T14:19:17;4.90;;;2.95;;
22628;SDS011;11481;53.694;9.910;2023-04-22T14:21:45;4.80;;;2.80;;
22628;SDS011;11481;53.694;9.910;2023-04-22T14:24:12;6.47;;;3.28;;
22628;SDS011;11481;53.694;9.910;2023-04-22T14:26:38;5.78;;;3.28;;
22628;SDS011;11481;53.694;9.910;2023-04-22T14:29:06;7.55;;;2.80;;
22628;SDS011;11481;53.694;9.910;2023-04-22T14:31:37;5.18;;;2.78;;
22628;SDS011;11481;53.694;9.910;2023-04-22T14:34:03;4.40;;;2.60;;
22628;SDS011;11481;53.694;9.910;2023-04-22T14:36:30;4.95;;;2.72;;
22628;SDS011;11481;53.694;9.910;2023-04-22T14:38:57;4.38;;;2.78;;
22628;SDS011;11481;53.694;9.910;2023-04-22T14:41:25;4.53;;;2.92;;
22628;SDS011;11481;53.694;9.910;2023-04-22T14:43:52;8.63;;;2.67;;
22628;SDS011;11481;53.694;9.910;2023-04-22T14:46:18;6.75;;;2.92;;
22628;SDS011;11481;53.694;9.910;2023-04-22T14:48:45;4.78;;;2.80;;
22628;SDS011;11481;53.694;9.910;2023-04-22T14:51:12;3.75;;;2.50;;
22628;SDS011;11481;53.694;9.910;2023-04-22T14:53:38;4.97;;;3.17;;
22628;SDS011;11481;53.694;9.910;2023-04-22T14:56:06;4.60;;;2.90;;
22628;SDS011;11481;53.694;9.910;2023-04-22T14:58:33;4.60;;;3.08;;
22628;SDS011;11481;53.694;9.910;2023-04-22T15:01:00;6.68;;;3.03;;
22628;SDS011;11481;53.694;9.910;2023-04-22T15:03:26;9.07;;;3.15;;
22628;SDS011;11481;53.694;9.910;2023-04-22T15:05:53;5.05;;;3.13;;
22628;SDS011;11481;53.694;9.910;2023-04-22T15:08:20;4.68;;;2.90;;
22628;SDS011;11481;53.694;9.910;2023-04-22T15:10:50;5.07;;;3.10;;
22628;SDS011;11481;53.694;9.910;2023-04-22T15:13:17;4.35;;;2.78;;